sensor_id;sensor_type;location;lat;lon;timestamp;P1;durP1;ratioP1;P2;durP2;ratioP2
36383;SDS011;22418;51.210;6.976;2023-06-10T00:01:44;10.83;;;7.53;;
36383;SDS011;22418;51.210;6.976;2023-06-10T00:04:17;15.45;;;8.50;;
36383;SDS011;22418;51.210;6.976;2023-06-10T00:06:47;11.47;;;7.57;;
36383;SDS011;22418;51.210;6.976;2023-06-10T00:09:19;13.85;;;7.45;;
36383;SDS011;22418;51.210;6.976;2023-06-10T00:11:51;14.52;;;7.18;;
36383;SDS011;22418;51.210;6.976;2023-06-10T00:14:21;14.27;;;8.13;;
36383;SDS011;22418;51.210;6.976;2023-06-10T00:16:52;13.03;;;7.10;;
36383;SDS011;22418;51.210;6.976;2023-06-10T00:19:22;13.60;;;7.83;;
36383;SDS011;22418;51.210;6.976;2023-06-10T00:21:56;10.45;;;7.57;;
36383;SDS011;22418;51.210;6.976;2023-06-10T00:26:57;13.07;;;7.90;;
36383;SDS011;22418;51.210;6.976;2023-06-10T00:29:28;14.20;;;8.43;;
36383;SDS011;22418;51.210;6.976;2023-06-10T00:31:58;11.23;;;7.50;;
36383;SDS011;22418;51.210;6.976;2023-06-10T00:34:29;14.33;;;7.90;;
36383;SDS011;22418;51.210;6.976;2023-06-10T00:37:00;16.93;;;8.30;;
36383;SDS011;22418;51.210;6.976;2023-06-10T00:39:30;11.90;;;7.80;;
36383;SDS011;22418;51.210;6.976;2023-06-10T00:42:01;15.00;;;8.03;;
36383;SDS011;22418;51.210;6.976;2023-06-10T00:44:31;14.80;;;8.00;;
36383;SDS011;22418;51.210;6.976;2023-06-10T00:47:02;11.20;;;7.77;;
36383;SDS011;22418;51.210;6.976;2023-06-10T00:49:33;12.35;;;8.55;;
36383;SDS011;22418;51.210;6.976;2023-06-10T00:52:04;11.73;;;7.68;;
36383;SDS011;22418;51.210;6.976;2023-06-10T00:54:37;10.15;;;7.90;;
36383;SDS011;22418;51.210;6.976;2023-06-10T00:57:08;11.65;;;7.78;;
36383;SDS011;22418;51.210;6.976;2023-06-10T00:59:40;13.60;;;8.10;;
36383;SDS011;22418;51.210;6.976;2023-06-10T01:02:13;13.40;;;7.70;;
36383;SDS011;22418;51.210;6.976;2023-06-10T01:04:44;12.65;;;8.65;;
36383;SDS011;22418;51.210;6.976;2023-06-10T01:07:21;11.97;;;8.10;;
36383;SDS011;22418;51.210;6.976;2023-06-10T01:12:46;11.60;;;7.72;;
36383;SDS011;22418;51.210;6.976;2023-06-10T01:15:26;13.23;;;8.77;;
36383;SDS011;22418;51.210;6.976;2023-06-10T01:18:04;15.38;;;8.02;;
36383;SDS011;22418;51.210;6.976;2023-06-10T01:20:38;13.48;;;8.45;;
36383;SDS011;22418;51.210;6.976;2023-06-10T01:23:12;16.33;;;8.00;;
36383;SDS011;22418;51.210;6.976;2023-06-10T01:25:47;12.80;;;8.30;;
36383;SDS011;22418;51.210;6.976;2023-06-10T01:28:47;11.48;;;8.25;;
36383;SDS011;22418;51.210;6.976;2023-06-10T01:34:06;11.30;;;8.40;;
36383;SDS011;22418;51.210;6.976;2023-06-10T01:36:40;14.57;;;8.25;;
36383;SDS011;22418;51.210;6.976;2023-06-10T01:39:18;17.35;;;8.32;;
36383;SDS011;22418;51.210;6.976;2023-06-10T01:41:52;11.55;;;8.32;;
36383;SDS011;22418;51.210;6.976;2023-06-10T01:44:24;14.15;;;8.27;;
36383;SDS011;22418;51.210;6.976;2023-06-10T01:46:54;11.37;;;8.00;;
36383;SDS011;22418;51.210;6.976;2023-06-10T01:49:25;11.80;;;8.43;;
36383;SDS011;22418;51.210;6.976;2023-06-10T01:51:56;14.75;;;8.07;;
36383;SDS011;22418;51.210;6.976;2023-06-10T01:54:26;15.07;;;8.60;;
36383;SDS011;22418;51.210;6.976;2023-06-10T01:56:57;15.20;;;8.67;;
36383;SDS011;22418;51.210;6.976;2023-06-10T01:59:28;13.67;;;7.33;;
36383;SDS011;22418;51.210;6.976;2023-06-10T02:01:58;14.73;;;8.93;;
36383;SDS011;22418;51.210;6.976;2023-06-10T02:04:29;14.90;;;8.97;;
36383;SDS011;22418;51.210;6.976;2023-06-10T02:06:59;17.27;;;8.50;;
36383;SDS011;22418;51.210;6.976;2023-06-10T02:09:34;14.98;;;8.57;;
36383;SDS011;22418;51.210;6.976;2023-06-10T02:12:05;13.88;;;8.43;;
36383;SDS011;22418;51.210;6.976;2023-06-10T02:14:36;14.93;;;8.95;;
36383;SDS011;22418;51.210;6.976;2023-06-10T02:17:06;17.37;;;8.33;;
36383;SDS011;22418;51.210;6.976;2023-06-10T02:19:38;11.03;;;7.93;;
36383;SDS011;22418;51.210;6.976;2023-06-10T02:22:12;12.73;;;8.55;;
36383;SDS011;22418;51.210;6.976;2023-06-10T02:24:42;13.90;;;8.10;;
36383;SDS011;22418;51.210;6.976;2023-06-10T02:27:13;14.07;;;8.10;;
36383;SDS011;22418;51.210;6.976;2023-06-10T02:32:15;13.10;;;8.10;;
36383;SDS011;22418;51.210;6.976;2023-06-10T02:34:46;15.43;;;7.72;;
36383;SDS011;22418;51.210;6.976;2023-06-10T02:37:16;14.03;;;8.23;;
36383;SDS011;22418;51.210;6.976;2023-06-10T02:39:47;11.18;;;7.40;;
36383;SDS011;22418;51.210;6.976;2023-06-10T02:42:18;11.90;;;8.27;;
36383;SDS011;22418;51.210;6.976;2023-06-10T02:44:49;13.00;;;8.10;;
36383;SDS011;22418;51.210;6.976;2023-06-10T02:47:19;10.97;;;8.20;;
36383;SDS011;22418;51.210;6.976;2023-06-10T02:49:50;15.53;;;8.63;;
36383;SDS011;22418;51.210;6.976;2023-06-10T02:52:21;13.53;;;8.80;;
36383;SDS011;22418;51.210;6.976;2023-06-10T02:54:51;13.57;;;8.73;;
36383;SDS011;22418;51.210;6.976;2023-06-10T02:57:22;12.27;;;7.93;;
36383;SDS011;22418;51.210;6.976;2023-06-10T02:59:52;21.80;;;9.47;;
36383;SDS011;22418;51.210;6.976;2023-06-10T03:02:23;14.52;;;8.30;;
36383;SDS011;22418;51.210;6.976;2023-06-10T03:04:58;13.52;;;8.30;;
36383;SDS011;22418;51.210;6.976;2023-06-10T03:07:28;13.23;;;8.17;;
36383;SDS011;22418;51.210;6.976;2023-06-10T03:10:00;13.68;;;7.75;;
36383;SDS011;22418;51.210;6.976;2023-06-10T03:12:30;13.33;;;8.33;;
36383;SDS011;22418;51.210;6.976;2023-06-10T03:15:01;14.30;;;8.23;;
36383;SDS011;22418;51.210;6.976;2023-06-10T03:17:33;14.00;;;7.47;;
36383;SDS011;22418;51.210;6.976;2023-06-10T03:20:04;13.82;;;7.55;;
36383;SDS011;22418;51.210;6.976;2023-06-10T03:22:36;12.38;;;8.60;;
36383;SDS011;22418;51.210;6.976;2023-06-10T03:27:43;12.82;;;7.22;;
36383;SDS011;22418;51.210;6.976;2023-06-10T03:30:14;15.57;;;8.33;;
36383;SDS011;22418;51.210;6.976;2023-06-10T03:32:45;11.32;;;7.80;;
36383;SDS011;22418;51.210;6.976;2023-06-10T03:35:15;15.93;;;7.80;;
36383;SDS011;22418;51.210;6.976;2023-06-10T03:37:47;11.93;;;8.40;;
36383;SDS011;22418;51.210;6.976;2023-06-10T03:40:17;11.57;;;8.07;;
36383;SDS011;22418;51.210;6.976;2023-06-10T03:42:48;10.70;;;7.63;;
36383;SDS011;22418;51.210;6.976;2023-06-10T03:45:19;12.77;;;8.83;;
36383;SDS011;22418;51.210;6.976;2023-06-10T03:47:50;13.85;;;8.00;;
36383;SDS011;22418;51.210;6.976;2023-06-10T03:50:20;14.50;;;8.40;;
36383;SDS011;22418;51.210;6.976;2023-06-10T03:52:53;11.75;;;8.30;;
36383;SDS011;22418;51.210;6.976;2023-06-10T03:55:23;12.57;;;8.20;;
36383;SDS011;22418;51.210;6.976;2023-06-10T03:57:54;11.93;;;7.60;;
36383;SDS011;22418;51.210;6.976;2023-06-10T04:00:25;11.02;;;7.72;;
36383;SDS011;22418;51.210;6.976;2023-06-10T04:02:55;11.23;;;7.53;;
36383;SDS011;22418;51.210;6.976;2023-06-10T04:05:27;13.32;;;7.72;;
36383;SDS011;22418;51.210;6.976;2023-06-10T04:07:58;10.65;;;7.65;;
36383;SDS011;22418;51.210;6.976;2023-06-10T04:10:29;10.95;;;7.25;;
36383;SDS011;22418;51.210;6.976;2023-06-10T04:13:00;10.07;;;7.87;;
36383;SDS011;22418;51.210;6.976;2023-06-10T04:15:30;12.18;;;8.20;;
36383;SDS011;22418;51.210;6.976;2023-06-10T04:18:04;10.55;;;7.35;;
36383;SDS011;22418;51.210;6.976;2023-06-10T04:20:35;12.50;;;7.47;;
36383;SDS011;22418;51.210;6.976;2023-06-10T04:23:05;9.97;;;7.57;;
36383;SDS011;22418;51.210;6.976;2023-06-10T04:25:36;12.00;;;7.00;;
36383;SDS011;22418;51.210;6.976;2023-06-10T04:28:07;10.20;;;6.87;;
36383;SDS011;22418;51.210;6.976;2023-06-10T04:30:37;10.93;;;7.30;;
36383;SDS011;22418;51.210;6.976;2023-06-10T04:33:08;9.98;;;7.97;;
36383;SDS011;22418;51.210;6.976;2023-06-10T04:35:39;9.20;;;7.38;;
36383;SDS011;22418;51.210;6.976;2023-06-10T04:38:10;12.10;;;6.87;;
36383;SDS011;22418;51.210;6.976;2023-06-10T04:40:40;11.30;;;7.60;;
36383;SDS011;22418;51.210;6.976;2023-06-10T04:43:11;13.20;;;7.30;;
36383;SDS011;22418;51.210;6.976;2023-06-10T04:45:42;10.35;;;7.07;;
36383;SDS011;22418;51.210;6.976;2023-06-10T04:48:16;10.20;;;6.25;;
36383;SDS011;22418;51.210;6.976;2023-06-10T04:50:46;10.67;;;6.97;;
36383;SDS011;22418;51.210;6.976;2023-06-10T04:53:17;9.97;;;6.80;;
36383;SDS011;22418;51.210;6.976;2023-06-10T04:55:47;10.70;;;7.10;;
36383;SDS011;22418;51.210;6.976;2023-06-10T04:58:18;10.30;;;6.57;;
36383;SDS011;22418;51.210;6.976;2023-06-10T05:00:49;10.63;;;6.63;;
36383;SDS011;22418;51.210;6.976;2023-06-10T05:03:20;12.60;;;6.97;;
36383;SDS011;22418;51.210;6.976;2023-06-10T05:05:50;14.13;;;7.00;;
36383;SDS011;22418;51.210;6.976;2023-06-10T05:08:21;10.52;;;6.40;;
36383;SDS011;22418;51.210;6.976;2023-06-10T05:10:51;10.63;;;7.10;;
36383;SDS011;22418;51.210;6.976;2023-06-10T05:13:22;8.83;;;6.70;;
36383;SDS011;22418;51.210;6.976;2023-06-10T05:15:52;7.13;;;6.20;;
36383;SDS011;22418;51.210;6.976;2023-06-10T05:18:23;10.23;;;6.28;;
36383;SDS011;22418;51.210;6.976;2023-06-10T05:20:54;9.40;;;5.85;;
36383;SDS011;22418;51.210;6.976;2023-06-10T05:23:24;7.97;;;6.13;;
36383;SDS011;22418;51.210;6.976;2023-06-10T05:28:25;10.17;;;6.00;;
36383;SDS011;22418;51.210;6.976;2023-06-10T05:30:56;9.38;;;5.90;;
36383;SDS011;22418;51.210;6.976;2023-06-10T05:33:26;10.35;;;6.15;;
36383;SDS011;22418;51.210;6.976;2023-06-10T05:35:57;11.57;;;5.82;;
36383;SDS011;22418;51.210;6.976;2023-06-10T05:38:27;6.90;;;5.45;;
36383;SDS011;22418;51.210;6.976;2023-06-10T05:40:58;11.07;;;6.22;;
36383;SDS011;22418;51.210;6.976;2023-06-10T05:43:29;10.50;;;5.82;;
36383;SDS011;22418;51.210;6.976;2023-06-10T05:45:59;8.88;;;5.45;;
36383;SDS011;22418;51.210;6.976;2023-06-10T05:48:30;8.88;;;6.18;;
36383;SDS011;22418;51.210;6.976;2023-06-10T05:51:01;6.65;;;5.45;;
36383;SDS011;22418;51.210;6.976;2023-06-10T05:53:32;10.00;;;5.30;;
36383;SDS011;22418;51.210;6.976;2023-06-10T05:56:02;11.25;;;5.38;;
36383;SDS011;22418;51.210;6.976;2023-06-10T05:58:33;7.93;;;4.50;;
36383;SDS011;22418;51.210;6.976;2023-06-10T06:01:03;10.07;;;5.72;;
36383;SDS011;22418;51.210;6.976;2023-06-10T06:03:34;8.73;;;5.55;;
36383;SDS011;22418;51.210;6.976;2023-06-10T06:06:05;7.05;;;5.22;;
36383;SDS011;22418;51.210;6.976;2023-06-10T06:08:35;10.60;;;5.38;;
36383;SDS011;22418;51.210;6.976;2023-06-10T06:11:06;8.68;;;5.10;;
36383;SDS011;22418;51.210;6.976;2023-06-10T06:13:36;8.45;;;5.28;;
36383;SDS011;22418;51.210;6.976;2023-06-10T06:16:07;10.55;;;5.47;;
36383;SDS011;22418;51.210;6.976;2023-06-10T06:18:38;11.68;;;5.05;;
36383;SDS011;22418;51.210;6.976;2023-06-10T06:21:08;8.40;;;4.85;;
36383;SDS011;22418;51.210;6.976;2023-06-10T06:23:39;9.88;;;5.28;;
36383;SDS011;22418;51.210;6.976;2023-06-10T06:26:09;8.52;;;4.82;;
36383;SDS011;22418;51.210;6.976;2023-06-10T06:32:07;7.80;;;4.70;;
36383;SDS011;22418;51.210;6.976;2023-06-10T06:34:38;6.80;;;4.65;;
36383;SDS011;22418;51.210;6.976;2023-06-10T06:37:08;7.32;;;4.63;;
36383;SDS011;22418;51.210;6.976;2023-06-10T06:39:39;7.93;;;5.47;;
36383;SDS011;22418;51.210;6.976;2023-06-10T06:42:10;5.82;;;4.90;;
36383;SDS011;22418;51.210;6.976;2023-06-10T06:44:40;5.38;;;4.55;;
36383;SDS011;22418;51.210;6.976;2023-06-10T06:47:11;8.63;;;4.80;;
36383;SDS011;22418;51.210;6.976;2023-06-10T06:49:41;7.35;;;4.85;;
36383;SDS011;22418;51.210;6.976;2023-06-10T06:52:12;8.63;;;5.30;;
36383;SDS011;22418;51.210;6.976;2023-06-10T06:54:43;7.70;;;5.20;;
36383;SDS011;22418;51.210;6.976;2023-06-10T06:57:14;7.25;;;5.20;;
36383;SDS011;22418;51.210;6.976;2023-06-10T06:59:44;8.32;;;5.35;;
36383;SDS011;22418;51.210;6.976;2023-06-10T07:02:15;7.10;;;5.25;;
36383;SDS011;22418;51.210;6.976;2023-06-10T07:04:46;5.50;;;4.97;;
36383;SDS011;22418;51.210;6.976;2023-06-10T07:07:18;8.23;;;5.18;;
36383;SDS011;22418;51.210;6.976;2023-06-10T07:09:49;11.95;;;5.38;;
36383;SDS011;22418;51.210;6.976;2023-06-10T07:12:20;6.28;;;4.65;;
36383;SDS011;22418;51.210;6.976;2023-06-10T07:14:53;9.68;;;5.50;;
36383;SDS011;22418;51.210;6.976;2023-06-10T07:17:24;8.43;;;4.90;;
36383;SDS011;22418;51.210;6.976;2023-06-10T07:19:55;5.80;;;4.55;;
36383;SDS011;22418;51.210;6.976;2023-06-10T07:22:27;5.63;;;4.75;;
36383;SDS011;22418;51.210;6.976;2023-06-10T07:24:58;9.38;;;5.20;;
36383;SDS011;22418;51.210;6.976;2023-06-10T07:27:28;7.35;;;4.70;;
36383;SDS011;22418;51.210;6.976;2023-06-10T07:29:59;6.35;;;5.00;;
36383;SDS011;22418;51.210;6.976;2023-06-10T07:32:30;7.85;;;5.03;;
36383;SDS011;22418;51.210;6.976;2023-06-10T07:35:01;9.52;;;5.35;;
36383;SDS011;22418;51.210;6.976;2023-06-10T07:37:32;10.32;;;5.50;;
36383;SDS011;22418;51.210;6.976;2023-06-10T07:40:03;7.53;;;5.20;;
36383;SDS011;22418;51.210;6.976;2023-06-10T07:42:37;8.63;;;5.10;;
36383;SDS011;22418;51.210;6.976;2023-06-10T07:45:07;8.20;;;4.95;;
36383;SDS011;22418;51.210;6.976;2023-06-10T07:47:38;10.77;;;5.70;;
36383;SDS011;22418;51.210;6.976;2023-06-10T07:50:09;11.90;;;4.70;;
36383;SDS011;22418;51.210;6.976;2023-06-10T07:52:40;9.25;;;5.18;;
36383;SDS011;22418;51.210;6.976;2023-06-10T07:55:10;7.55;;;5.53;;
36383;SDS011;22418;51.210;6.976;2023-06-10T07:57:41;9.10;;;5.45;;
36383;SDS011;22418;51.210;6.976;2023-06-10T08:00:11;8.80;;;5.82;;
36383;SDS011;22418;51.210;6.976;2023-06-10T08:02:42;8.68;;;6.28;;
36383;SDS011;22418;51.210;6.976;2023-06-10T08:05:13;10.77;;;5.68;;
36383;SDS011;22418;51.210;6.976;2023-06-10T08:07:44;11.18;;;6.00;;
36383;SDS011;22418;51.210;6.976;2023-06-10T08:10:15;11.15;;;6.03;;
36383;SDS011;22418;51.210;6.976;2023-06-10T08:15:16;8.27;;;5.83;;
36383;SDS011;22418;51.210;6.976;2023-06-10T08:20:17;12.20;;;5.93;;
36383;SDS011;22418;51.210;6.976;2023-06-10T08:22:48;9.18;;;6.35;;
36383;SDS011;22418;51.210;6.976;2023-06-10T08:27:53;9.55;;;6.05;;
36383;SDS011;22418;51.210;6.976;2023-06-10T08:30:26;9.18;;;6.55;;
36383;SDS011;22418;51.210;6.976;2023-06-10T08:32:57;8.73;;;6.00;;
36383;SDS011;22418;51.210;6.976;2023-06-10T08:35:27;10.13;;;6.40;;
36383;SDS011;22418;51.210;6.976;2023-06-10T08:37:58;11.20;;;5.88;;
36383;SDS011;22418;51.210;6.976;2023-06-10T08:40:28;8.48;;;6.40;;
36383;SDS011;22418;51.210;6.976;2023-06-10T08:43:05;13.75;;;6.75;;
36383;SDS011;22418;51.210;6.976;2023-06-10T08:45:37;13.32;;;6.30;;
36383;SDS011;22418;51.210;6.976;2023-06-10T08:48:08;9.20;;;6.68;;
36383;SDS011;22418;51.210;6.976;2023-06-10T08:50:41;11.27;;;6.47;;
36383;SDS011;22418;51.210;6.976;2023-06-10T08:53:13;10.55;;;6.53;;
36383;SDS011;22418;51.210;6.976;2023-06-10T08:55:49;8.23;;;6.22;;
36383;SDS011;22418;51.210;6.976;2023-06-10T08:58:21;10.02;;;6.68;;
36383;SDS011;22418;51.210;6.976;2023-06-10T09:00:52;9.77;;;6.38;;
36383;SDS011;22418;51.210;6.976;2023-06-10T09:03:24;17.23;;;7.00;;
36383;SDS011;22418;51.210;6.976;2023-06-10T09:05:55;11.50;;;7.22;;
36383;SDS011;22418;51.210;6.976;2023-06-10T09:08:27;11.63;;;7.05;;
36383;SDS011;22418;51.210;6.976;2023-06-10T09:10:57;10.95;;;6.40;;
36383;SDS011;22418;51.210;6.976;2023-06-10T09:13:28;15.15;;;7.13;;
36383;SDS011;22418;51.210;6.976;2023-06-10T09:18:31;15.80;;;6.75;;
36383;SDS011;22418;51.210;6.976;2023-06-10T09:21:02;11.98;;;6.63;;
36383;SDS011;22418;51.210;6.976;2023-06-10T09:23:32;13.50;;;6.70;;
36383;SDS011;22418;51.210;6.976;2023-06-10T09:26:08;13.02;;;6.63;;
36383;SDS011;22418;51.210;6.976;2023-06-10T09:28:49;10.55;;;7.03;;
36383;SDS011;22418;51.210;6.976;2023-06-10T09:31:20;9.70;;;6.60;;
36383;SDS011;22418;51.210;6.976;2023-06-10T09:36:22;11.23;;;6.83;;
36383;SDS011;22418;51.210;6.976;2023-06-10T09:38:56;10.52;;;6.55;;
36383;SDS011;22418;51.210;6.976;2023-06-10T09:41:33;11.88;;;6.40;;
36383;SDS011;22418;51.210;6.976;2023-06-10T09:44:11;11.23;;;7.10;;
36383;SDS011;22418;51.210;6.976;2023-06-10T09:46:49;9.93;;;6.72;;
36383;SDS011;22418;51.210;6.976;2023-06-10T09:49:24;12.45;;;6.55;;
36383;SDS011;22418;51.210;6.976;2023-06-10T09:51:59;9.75;;;6.97;;
36383;SDS011;22418;51.210;6.976;2023-06-10T09:54:32;13.03;;;6.87;;
36383;SDS011;22418;51.210;6.976;2023-06-10T09:57:06;11.02;;;7.28;;
36383;SDS011;22418;51.210;6.976;2023-06-10T09:59:39;14.25;;;6.57;;
36383;SDS011;22418;51.210;6.976;2023-06-10T10:02:13;10.70;;;7.25;;
36383;SDS011;22418;51.210;6.976;2023-06-10T10:04:47;10.55;;;6.60;;
36383;SDS011;22418;51.210;6.976;2023-06-10T10:07:18;13.10;;;6.65;;
36383;SDS011;22418;51.210;6.976;2023-06-10T10:09:48;9.97;;;6.63;;
36383;SDS011;22418;51.210;6.976;2023-06-10T10:12:19;12.00;;;6.20;;
36383;SDS011;22418;51.210;6.976;2023-06-10T10:17:21;14.70;;;6.70;;
36383;SDS011;22418;51.210;6.976;2023-06-10T10:19:56;10.63;;;6.63;;
36383;SDS011;22418;51.210;6.976;2023-06-10T10:22:38;12.73;;;6.95;;
36383;SDS011;22418;51.210;6.976;2023-06-10T10:25:16;48.80;;;7.53;;
36383;SDS011;22418;51.210;6.976;2023-06-10T10:28:04;12.55;;;7.05;;
36383;SDS011;22418;51.210;6.976;2023-06-10T10:30:43;12.43;;;6.78;;
36383;SDS011;22418;51.210;6.976;2023-06-10T10:33:18;11.60;;;6.78;;
36383;SDS011;22418;51.210;6.976;2023-06-10T10:35:53;9.75;;;6.32;;
36383;SDS011;22418;51.210;6.976;2023-06-10T10:38:23;8.45;;;6.40;;
36383;SDS011;22418;51.210;6.976;2023-06-10T10:40:54;13.35;;;6.45;;
36383;SDS011;22418;51.210;6.976;2023-06-10T10:43:29;13.93;;;6.50;;
36383;SDS011;22418;51.210;6.976;2023-06-10T10:46:01;9.40;;;6.65;;
36383;SDS011;22418;51.210;6.976;2023-06-10T10:48:36;10.05;;;6.13;;
36383;SDS011;22418;51.210;6.976;2023-06-10T10:51:09;12.15;;;6.45;;
36383;SDS011;22418;51.210;6.976;2023-06-10T10:53:40;15.70;;;6.70;;
36383;SDS011;22418;51.210;6.976;2023-06-10T10:56:15;11.93;;;6.25;;
36383;SDS011;22418;51.210;6.976;2023-06-10T10:59:03;12.48;;;6.70;;
36383;SDS011;22418;51.210;6.976;2023-06-10T11:01:41;12.50;;;6.43;;
36383;SDS011;22418;51.210;6.976;2023-06-10T11:04:17;14.13;;;6.90;;
36383;SDS011;22418;51.210;6.976;2023-06-10T11:06:58;13.82;;;6.05;;
36383;SDS011;22418;51.210;6.976;2023-06-10T11:09:36;11.02;;;6.65;;
36383;SDS011;22418;51.210;6.976;2023-06-10T11:12:07;16.08;;;6.50;;
36383;SDS011;22418;51.210;6.976;2023-06-10T11:14:39;10.15;;;6.18;;
36383;SDS011;22418;51.210;6.976;2023-06-10T11:17:25;8.95;;;6.53;;
36383;SDS011;22418;51.210;6.976;2023-06-10T11:19:55;13.98;;;7.00;;
36383;SDS011;22418;51.210;6.976;2023-06-10T11:22:29;10.27;;;6.38;;
36383;SDS011;22418;51.210;6.976;2023-06-10T11:24:59;10.75;;;6.22;;
36383;SDS011;22418;51.210;6.976;2023-06-10T11:27:36;12.48;;;7.15;;
36383;SDS011;22418;51.210;6.976;2023-06-10T11:30:21;12.00;;;6.47;;
36383;SDS011;22418;51.210;6.976;2023-06-10T11:32:56;13.50;;;6.72;;
36383;SDS011;22418;51.210;6.976;2023-06-10T11:35:27;11.65;;;6.55;;
36383;SDS011;22418;51.210;6.976;2023-06-10T11:37:59;8.77;;;6.35;;
36383;SDS011;22418;51.210;6.976;2023-06-10T11:40:31;15.20;;;6.75;;
36383;SDS011;22418;51.210;6.976;2023-06-10T11:43:03;14.63;;;6.50;;
36383;SDS011;22418;51.210;6.976;2023-06-10T11:45:34;11.93;;;6.85;;
36383;SDS011;22418;51.210;6.976;2023-06-10T11:48:04;9.93;;;7.03;;
36383;SDS011;22418;51.210;6.976;2023-06-10T11:50:35;18.20;;;6.80;;
36383;SDS011;22418;51.210;6.976;2023-06-10T11:53:07;11.20;;;6.63;;
36383;SDS011;22418;51.210;6.976;2023-06-10T11:55:49;16.45;;;7.10;;
36383;SDS011;22418;51.210;6.976;2023-06-10T11:58:21;10.55;;;6.50;;
36383;SDS011;22418;51.210;6.976;2023-06-10T12:00:53;17.40;;;6.72;;
36383;SDS011;22418;51.210;6.976;2023-06-10T12:03:26;10.70;;;7.00;;
36383;SDS011;22418;51.210;6.976;2023-06-10T12:06:05;16.80;;;7.15;;
36383;SDS011;22418;51.210;6.976;2023-06-10T12:08:41;11.23;;;7.57;;
36383;SDS011;22418;51.210;6.976;2023-06-10T12:11:12;22.10;;;7.38;;
36383;SDS011;22418;51.210;6.976;2023-06-10T12:13:47;11.63;;;6.85;;
36383;SDS011;22418;51.210;6.976;2023-06-10T12:16:19;13.02;;;6.53;;
36383;SDS011;22418;51.210;6.976;2023-06-10T12:18:50;12.07;;;6.82;;
36383;SDS011;22418;51.210;6.976;2023-06-10T12:21:23;10.27;;;7.37;;
36383;SDS011;22418;51.210;6.976;2023-06-10T12:26:41;25.65;;;7.72;;
36383;SDS011;22418;51.210;6.976;2023-06-10T12:29:18;16.63;;;6.82;;
36383;SDS011;22418;51.210;6.976;2023-06-10T12:32:03;15.15;;;6.80;;
36383;SDS011;22418;51.210;6.976;2023-06-10T12:34:36;10.93;;;6.28;;
36383;SDS011;22418;51.210;6.976;2023-06-10T12:37:11;13.68;;;6.55;;
36383;SDS011;22418;51.210;6.976;2023-06-10T12:39:43;12.55;;;6.72;;
36383;SDS011;22418;51.210;6.976;2023-06-10T12:42:22;15.80;;;6.78;;
36383;SDS011;22418;51.210;6.976;2023-06-10T12:44:53;11.70;;;6.35;;
36383;SDS011;22418;51.210;6.976;2023-06-10T12:47:31;17.40;;;6.88;;
36383;SDS011;22418;51.210;6.976;2023-06-10T12:50:05;18.70;;;7.07;;
36383;SDS011;22418;51.210;6.976;2023-06-10T12:52:36;10.88;;;6.22;;
36383;SDS011;22418;51.210;6.976;2023-06-10T12:55:06;15.20;;;6.63;;
36383;SDS011;22418;51.210;6.976;2023-06-10T12:57:37;17.05;;;6.63;;
36383;SDS011;22418;51.210;6.976;2023-06-10T13:00:18;15.77;;;6.85;;
36383;SDS011;22418;51.210;6.976;2023-06-10T13:02:49;12.85;;;6.28;;
36383;SDS011;22418;51.210;6.976;2023-06-10T13:05:20;15.27;;;6.35;;
36383;SDS011;22418;51.210;6.976;2023-06-10T13:07:51;12.65;;;6.85;;
36383;SDS011;22418;51.210;6.976;2023-06-10T13:10:21;9.03;;;6.00;;
36383;SDS011;22418;51.210;6.976;2023-06-10T13:12:52;12.70;;;6.40;;
36383;SDS011;22418;51.210;6.976;2023-06-10T13:15:24;13.18;;;6.55;;
36383;SDS011;22418;51.210;6.976;2023-06-10T13:17:56;10.55;;;6.55;;
36383;SDS011;22418;51.210;6.976;2023-06-10T13:20:27;13.37;;;6.93;;
36383;SDS011;22418;51.210;6.976;2023-06-10T13:22:57;12.40;;;6.63;;
36383;SDS011;22418;51.210;6.976;2023-06-10T13:25:28;10.55;;;6.53;;
36383;SDS011;22418;51.210;6.976;2023-06-10T13:27:58;12.43;;;7.10;;
36383;SDS011;22418;51.210;6.976;2023-06-10T13:30:29;12.03;;;7.07;;
36383;SDS011;22418;51.210;6.976;2023-06-10T13:32:59;13.57;;;6.40;;
36383;SDS011;22418;51.210;6.976;2023-06-10T13:35:30;12.07;;;6.53;;
36383;SDS011;22418;51.210;6.976;2023-06-10T13:38:01;11.47;;;6.70;;
36383;SDS011;22418;51.210;6.976;2023-06-10T13:40:31;15.77;;;6.40;;
36383;SDS011;22418;51.210;6.976;2023-06-10T13:43:02;12.30;;;6.50;;
36383;SDS011;22418;51.210;6.976;2023-06-10T13:45:32;13.20;;;6.05;;
36383;SDS011;22418;51.210;6.976;2023-06-10T13:48:03;8.63;;;6.47;;
36383;SDS011;22418;51.210;6.976;2023-06-10T13:50:35;14.77;;;6.53;;
36383;SDS011;22418;51.210;6.976;2023-06-10T13:53:07;10.90;;;6.80;;
36383;SDS011;22418;51.210;6.976;2023-06-10T13:55:38;11.47;;;6.83;;
36383;SDS011;22418;51.210;6.976;2023-06-10T13:58:08;13.82;;;7.57;;
36383;SDS011;22418;51.210;6.976;2023-06-10T14:00:39;12.53;;;6.27;;
36383;SDS011;22418;51.210;6.976;2023-06-10T14:03:09;17.00;;;5.87;;
36383;SDS011;22418;51.210;6.976;2023-06-10T14:05:40;12.57;;;5.90;;
36383;SDS011;22418;51.210;6.976;2023-06-10T14:08:11;8.93;;;5.82;;
36383;SDS011;22418;51.210;6.976;2023-06-10T14:10:42;9.77;;;5.73;;
36383;SDS011;22418;51.210;6.976;2023-06-10T14:13:12;9.00;;;6.07;;
36383;SDS011;22418;51.210;6.976;2023-06-10T14:15:43;7.50;;;5.97;;
36383;SDS011;22418;51.210;6.976;2023-06-10T14:18:13;10.15;;;6.18;;
36383;SDS011;22418;51.210;6.976;2023-06-10T14:20:44;13.53;;;6.07;;
36383;SDS011;22418;51.210;6.976;2023-06-10T14:23:15;9.05;;;6.07;;
36383;SDS011;22418;51.210;6.976;2023-06-10T14:25:45;13.30;;;5.90;;
36383;SDS011;22418;51.210;6.976;2023-06-10T14:28:16;12.50;;;5.43;;
36383;SDS011;22418;51.210;6.976;2023-06-10T14:30:46;10.50;;;5.80;;
36383;SDS011;22418;51.210;6.976;2023-06-10T14:33:17;12.00;;;6.30;;
36383;SDS011;22418;51.210;6.976;2023-06-10T14:35:47;13.90;;;5.73;;
36383;SDS011;22418;51.210;6.976;2023-06-10T14:38:18;8.30;;;6.13;;
36383;SDS011;22418;51.210;6.976;2023-06-10T14:40:48;9.20;;;6.20;;
36383;SDS011;22418;51.210;6.976;2023-06-10T14:43:19;12.95;;;6.35;;
36383;SDS011;22418;51.210;6.976;2023-06-10T14:45:50;14.53;;;6.17;;
36383;SDS011;22418;51.210;6.976;2023-06-10T14:48:21;11.25;;;6.28;;
36383;SDS011;22418;51.210;6.976;2023-06-10T14:50:52;12.23;;;5.97;;
36383;SDS011;22418;51.210;6.976;2023-06-10T14:53:25;11.13;;;6.68;;
36383;SDS011;22418;51.210;6.976;2023-06-10T14:55:55;9.23;;;6.23;;
36383;SDS011;22418;51.210;6.976;2023-06-10T14:58:26;11.97;;;6.23;;
36383;SDS011;22418;51.210;6.976;2023-06-10T15:00:56;8.00;;;5.67;;
36383;SDS011;22418;51.210;6.976;2023-06-10T15:03:27;11.75;;;6.07;;
36383;SDS011;22418;51.210;6.976;2023-06-10T15:05:57;15.20;;;6.18;;
36383;SDS011;22418;51.210;6.976;2023-06-10T15:08:28;12.32;;;6.15;;
36383;SDS011;22418;51.210;6.976;2023-06-10T15:10:58;12.57;;;6.67;;
36383;SDS011;22418;51.210;6.976;2023-06-10T15:13:31;12.63;;;6.10;;
36383;SDS011;22418;51.210;6.976;2023-06-10T15:16:01;9.53;;;5.87;;
36383;SDS011;22418;51.210;6.976;2023-06-10T15:18:32;10.98;;;5.85;;
36383;SDS011;22418;51.210;6.976;2023-06-10T15:21:03;13.70;;;6.00;;
36383;SDS011;22418;51.210;6.976;2023-06-10T15:23:33;17.37;;;6.87;;
36383;SDS011;22418;51.210;6.976;2023-06-10T15:26:04;12.05;;;6.47;;
36383;SDS011;22418;51.210;6.976;2023-06-10T15:28:35;10.95;;;5.50;;
36383;SDS011;22418;51.210;6.976;2023-06-10T15:31:05;9.73;;;6.43;;
36383;SDS011;22418;51.210;6.976;2023-06-10T15:33:36;7.90;;;5.40;;
36383;SDS011;22418;51.210;6.976;2023-06-10T15:36:06;10.55;;;6.20;;
36383;SDS011;22418;51.210;6.976;2023-06-10T15:38:37;8.97;;;5.70;;
36383;SDS011;22418;51.210;6.976;2023-06-10T15:41:07;18.58;;;6.40;;
36383;SDS011;22418;51.210;6.976;2023-06-10T15:43:38;10.23;;;5.53;;